Tiempo atmosférico en la estación meteorológica de Haría, Las Palmas (277 m.)



Fecha
DESCASC
Temp. máxima en grados centígrados (hora)
DESCASC
Temp. mínima en grados centígrados (hora)
DESCASC
Temp. media en grados centígrados
DESCASC
Racha de viento máxima en m/sg (hora)
DESCASC
Velocidad máxima media en intervalos de 10 minutos(hora)
DESCASC
Precipitaciones diarias en mm
DESCASC
Precipitaciones de 00:00 a 06:00 en mm
DESCASC
Precipitaciones de 06:00 a 12:00 en mm
DESCASC
Precipitaciones de 12:00 a 18:00 en mm
DESCASC
Precipitaciones de 18:00 a 24:00 en mm
DESCASC
18-01-2021 17.4 (12:40) 9.2 (00:00) 13.3 6.67 (13:10) 4.44 (12:50) 0 0 0 0 0
03-01-2021 15.6 (10:40) 12.7 (00:00) 14.2 6.94 (06:20) 4.72 (12:40) 0 0 0 0 0
28-12-2020 19.3 (11:40) 12.4 (00:00) 15.8 7.22 (13:20) 4.17 (13:00) 0.2 0 0.2 0 0
19-01-2021 16.7 (13:20) 9 (00:00) 12.9 7.22 (16:20) 5 (16:20) 0 0 0 0 0
12-01-2021 15.4 (12:20) 9.7 (00:00) 12.5 7.5 (13:10) 5.28 (11:10) 0 0 0 0 0
24-01-2021 19.3 (14:10) 13.4 (00:00) 16.3 7.78 (14:40) 4.72 (15:00) 0 0 0 0 0
20-01-2021 18.2 (13:00) 9.7 (00:00) 14 7.78 (15:50) 5.28 (15:50) 0 0 0 0 0
13-01-2021 17.9 (13:50) 11.8 (00:00) 14.8 7.78 (10:50) 4.72 (11:10) 0 0 0 0 0
29-12-2020 17.8 (13:30) 12.3 (00:00) 15 8.06 (15:30) 5.83 (18:40) 0 0 0 0 0
23-01-2021 17.3 (14:20) 14.2 (00:00) 15.7 8.33 (10:50) 5.83 (10:50) 0.4 0.4 0 0 0
22-01-2021 18.5 (13:40) 14.2 (00:00) 16.3 8.33 (13:00) 6.11 (16:10) 0.2 0 0 0 0.2
30-12-2020 17 (14:20) 13 (00:00) 15 8.89 (18:50) 5.28 (19:00) 2 1.8 0.2 0 0
21-01-2021 18.7 (17:20) 13.8 (00:00) 16.3 8.89 (14:50) 6.67 (14:50) 0 0 0 0 0
17-01-2021 16.9 (13:20) 10.4 (00:00) 13.6 8.89 (13:30) 5.83 (12:30) 0 0 0 0 0
02-01-2021 16.8 (12:10) 13.8 (00:00) 15.3 9.17 (16:10) 5.56 (14:30) 0 0 0 0 0
14-01-2021 16 (11:30) 11.7 (07:30) 13.8 10 (16:10) 6.11 (16:20) 0 0 0 0 0
31-12-2020 16.4 (12:50) 13.3 (00:00) 14.8 10.28 (16:20) 6.67 (13:20) 0.6 0.6 0 0 0
25-01-2021 18.7 (14:00) 13.8 (00:00) 16.3 10.83 (12:50) 7.78 (12:50) 0 0 0 0 0
04-01-2021 18.4 (22:50) 10.1 (00:00) 14.3 11.11 (23:59) 7.22 (23:20) 0 0 0 0 0
15-01-2021 15.6 (13:30) 13.1 (00:00) 14.4 11.11 (08:50) 6.94 (08:50) 0 0 0 0 0
16-01-2021 16.5 (11:20) 13.1 (00:00) 14.8 11.11 (10:20) 7.78 (10:40) 0 0 0 0 0
26-01-2021 18.1 (13:50) 15.1 (00:00) 16.6 11.39 (12:40) 7.22 (12:50) 0 0 0 0 0
01-01-2021 17.1 (13:20) 14 (00:00) 15.6 11.39 (13:00) 7.5 (13:00) 0 0 0 0 0
11-01-2021 15.6 (13:30) 11.4 (00:00) 13.5 11.94 (14:30) 7.78 (04:00) 2.6 0.6 1.2 0.6 0.2
09-01-2021 14.6 (15:20) 11.4 (00:00) 13 16.11 (15:40) 10.28 (18:00) 4.4 0.4 3.4 0.2 0.4
05-01-2021 18.8 (14:10) 16.8 (00:00) 17.8 17.5 (06:50) 10.28 (11:20) 2.4 0 2.4 0 0
07-01-2021 20 (10:30) 16.9 (00:00) 18.4 18.89 (12:20) 13.61 (11:30) 2.2 0.2 0 2 0
06-01-2021 21.3 (12:20) 16.9 (00:00) 19.1 19.44 (16:00) 13.89 (11:50) 3.6 0.6 0 3 0
10-01-2021 15.4 (12:10) 11.6 (05:00) 13.5 19.72 (03:10) 12.22 (08:20) 12.6 4 2.4 5.6 0.6
08-01-2021 18.8 (00:10) 12.4 (00:00) 15.6 23.33 (07:30) 12.5 (02:40) 6.4 1.2 0 5.2 0

Gráficas

Temp. máximas Temp. mínimas Temp. medias Precipitaciones Rachas de viento máximas Velocidades máximas media en intervalos de 10 minutos

Datos horarios

Fecha y hora oficial Temperatura (ºC) Velocidad del viento (km/h) Dirección del viento Racha (km/h) Dirección de racha Precipitación (mm) Presión (hPa) Tendencia (hPa) Humedad (%)
2021-01-26 23:00:00 15.7 13 Nordeste 25 Nordeste 0 -- -- 95
2021-01-26 22:00:00 15.6 14 Nordeste 27 Nordeste 0 -- -- 95
2021-01-26 21:00:00 15.6 15 Nordeste 29 Nordeste 0 -- -- 94
2021-01-26 20:00:00 15.6 13 Nordeste 28 Nordeste 0 -- -- 94
2021-01-26 19:00:00 15.7 15 Nordeste 30 Norte 0 -- -- 92
2021-01-26 18:00:00 16.1 15 Norte 32 Nordeste 0 -- -- 88
2021-01-26 17:00:00 17.2 20 Norte 36 Norte 0 -- -- 83
2021-01-26 16:00:00 17.6 22 Norte 37 Norte 0 -- -- 82
2021-01-26 15:00:00 18 23 Nordeste 37 Norte 0 -- -- 81
2021-01-26 14:00:00 18.1 24 Norte 40 Norte 0 -- -- 80
2021-01-26 13:00:00 17.9 22 Nordeste 41 Nordeste 0 -- -- 82
2021-01-26 12:00:00 17.6 22 Nordeste 37 Norte 0 -- -- 83
2021-01-26 11:00:00 16.9 21 Nordeste 37 Nordeste 0 -- -- 86
2021-01-26 10:00:00 15.9 23 Nordeste 40 Nordeste 0 -- -- 88
2021-01-26 09:00:00 15.6 23 Nordeste 35 Nordeste 0 -- -- 88
2021-01-26 08:00:00 15.4 23 Nordeste 35 Nordeste 0 -- -- 89
2021-01-26 07:00:00 15.4 21 Nordeste 34 Nordeste 0 -- -- 88
2021-01-26 06:00:00 15.3 14 Nordeste 28 Nordeste 0 -- -- 88
2021-01-26 05:00:00 15.2 12 Norte 28 Nordeste 0 -- -- 88
2021-01-26 04:00:00 15.4 18 Nordeste 31 Nordeste 0 -- -- 86
2021-01-26 03:00:00 15.4 13 Norte 30 Norte 0 -- -- 86
2021-01-26 02:00:00 15.6 19 Nordeste 30 Nordeste 0 -- -- 88
2021-01-26 01:00:00 15.3 17 Norte 32 Norte 0 -- -- 88
2021-01-26 00:00:00 15.1 14 Norte 24 Norte 0 -- -- 88
2021-01-25 23:00:00 15.4 13 Norte 27 Nordeste 0 -- -- 84
2021-01-25 22:00:00 15.7 14 Norte 28 Norte 0 -- -- 84
2021-01-25 21:00:00 15.3 14 Norte 31 Norte 0 -- -- 84
2021-01-25 20:00:00 15.4 17 Norte 32 Norte 0 -- -- 84
2021-01-25 19:00:00 15.3 13 Norte 31 Norte 0 -- -- 84
2021-01-25 18:00:00 15.6 22 Norte 35 Norte 0 -- -- 84
2021-01-25 17:00:00 16.2 17 Norte 36 Norte 0 -- -- 82
2021-01-25 16:00:00 16.5 21 Norte 32 Norte 0 -- -- 80
2021-01-25 15:00:00 17.5 19 Norte 32 Nordeste 0 -- -- 77
2021-01-25 14:00:00 18.7 19 Norte 36 Norte 0 -- -- 75
2021-01-25 13:00:00 18.4 27 Norte 39 Nordeste 0 -- -- 76
2021-01-25 12:00:00 17.9 24 Norte 34 Norte 0 -- -- 79
2021-01-25 11:00:00 17.2 21 Norte 32 Norte 0 -- -- 84
2021-01-25 10:00:00 16 17 Norte 28 Norte 0 -- -- 91
2021-01-25 09:00:00 15.5 15 Norte 26 Norte 0 -- -- 93
2021-01-25 08:00:00 14.9 15 Norte 26 Norte 0 -- -- 93
2021-01-25 07:00:00 14.3 14 Noroeste 23 Norte 0 -- -- 93
2021-01-25 06:00:00 14.3 12 Norte 21 Norte 0 -- -- 94
2021-01-25 05:00:00 14.3 13 Noroeste 20 Norte 0 -- -- 94
2021-01-25 04:00:00 14.3 9 Noroeste 17 Norte 0 -- -- 94
2021-01-25 03:00:00 14.5 10 Noroeste 18 Noroeste 0 -- -- 93
2021-01-25 02:00:00 14.2 12 Noroeste 18 Noroeste 0 -- -- 94
2021-01-25 01:00:00 14.5 12 Noroeste 18 Norte 0 -- -- 94
2021-01-25 00:00:00 14.6 10 Noroeste 18 Norte 0 -- -- 94
2021-01-24 23:00:00 14.8 11 Norte 15 Norte 0 -- -- 93
2021-01-24 22:00:00 14.9 8 Norte 14 Norte 0 -- -- 91
2021-01-24 21:00:00 15 6 Noroeste 10 Noroeste 0 -- -- 86
2021-01-24 20:00:00 14.9 5 Noroeste 10 Noroeste 0 -- -- 76
2021-01-24 19:00:00 15.9 4 Noroeste 13 Nordeste 0 -- -- 73
2021-01-24 18:00:00 16.9 6 Nordeste 18 Nordeste 0 -- -- 69
2021-01-24 17:00:00 18.3 11 Nordeste 23 Nordeste 0 -- -- 64
2021-01-24 16:00:00 18.8 12 Nordeste 24 Nordeste 0 -- -- 68
2021-01-24 15:00:00 18.8 17 Nordeste 28 Nordeste 0 -- -- 70
2021-01-24 14:00:00 18.9 14 Nordeste 27 Nordeste 0 -- -- 71
2021-01-24 13:00:00 18.4 13 Nordeste 23 Nordeste 0 -- -- 74
2021-01-24 12:00:00 18.6 10 Nordeste 20 Nordeste 0 -- -- 79
2021-01-24 11:00:00 17.9 8 Norte 18 Norte 0 -- -- 87
2021-01-24 10:00:00 16.8 10 Norte 17 Norte 0 -- -- 92
2021-01-24 09:00:00 15.5 5 Norte 21 Norte 0 -- -- 94
2021-01-24 08:00:00 14.3 13 Noroeste 18 Norte 0 -- -- 93
2021-01-24 07:00:00 14.4 11 Noroeste 21 Noroeste 0 -- -- 91
2021-01-24 06:00:00 14 9 Noroeste 16 Noroeste 0 -- -- 91
2021-01-24 05:00:00 14.4 5 Norte 16 Noroeste 0 -- -- 90
2021-01-24 04:00:00 14.2 8 Noroeste 18 Noroeste 0 -- -- 91
2021-01-24 03:00:00 13.4 10 Noroeste 16 Oeste 0 -- -- 95
2021-01-24 02:00:00 14.1 5 Norte 16 Norte 0 -- -- 94
2021-01-24 01:00:00 14.1 4 Norte 13 Norte 0 -- -- 93
2021-01-24 00:00:00 14.3 2 Nordeste 8 Nordeste 0 -- -- 92
2021-01-23 23:00:00 14.3 3 Nordeste 15 Nordeste 0 -- -- 91
2021-01-23 22:00:00 14.5 8 Nordeste 18 Nordeste 0 -- -- 90
2021-01-23 21:00:00 14.6 12 Nordeste 21 Nordeste 0 -- -- 89
2021-01-23 20:00:00 14.7 8 Nordeste 24 Nordeste 0 -- -- 88
2021-01-23 19:00:00 15 11 Nordeste 25 Nordeste 0 -- -- 86
2021-01-23 18:00:00 15.4 14 Nordeste 28 Nordeste 0 -- -- 84
2021-01-23 17:00:00 16.1 18 Norte 29 Nordeste 0 -- -- 81
2021-01-23 16:00:00 16.9 14 Norte 26 Nordeste 0 -- -- 78
2021-01-23 15:00:00 17.2 16 Nordeste 25 Nordeste 0 -- -- 78
2021-01-23 14:00:00 17 15 Nordeste 25 Nordeste 0 -- -- 81
2021-01-23 13:00:00 16.7 18 Nordeste 27 Nordeste 0 -- -- 84
2021-01-23 12:00:00 16.2 16 Nordeste 27 Norte 0 -- -- 87
2021-01-23 11:00:00 16 17 Nordeste 30 Nordeste 0 -- -- 91
2021-01-23 10:00:00 15.6 13 Nordeste 27 Norte 0 -- -- 93
2021-01-23 09:00:00 15.1 15 Norte 23 Norte 0 -- -- 95
2021-01-23 08:00:00 14.4 14 Norte 20 Norte 0 -- -- 96
2021-01-23 07:00:00 14.2 9 Noroeste 14 Norte 0 -- -- 96
2021-01-23 06:00:00 14.7 8 Norte 14 Norte 0 -- -- 96
2021-01-23 05:00:00 14.7 8 Norte 16 Norte 0 -- -- 96
2021-01-23 04:00:00 14.7 10 Norte 17 Nordeste 0 -- -- 97
2021-01-23 03:00:00 15.5 6 Nordeste 20 Nordeste 0 -- -- 98
2021-01-23 02:00:00 15.6 11 Nordeste 22 Nordeste 0.4 -- -- 97
2021-01-23 01:00:00 16 10 Norte 19 Norte 0 -- -- 96
2021-01-23 00:00:00 15.9 8 Norte 18 Norte 0.2 -- -- 96
2021-01-22 23:00:00 16.1 8 Nordeste 19 Norte 0 -- -- 95
2021-01-22 22:00:00 16.2 10 Norte 18 Norte 0 -- -- 94
2021-01-22 21:00:00 16.2 10 Nordeste 19 Norte 0 -- -- 94
2021-01-22 20:00:00 16.2 12 Norte 19 Norte 0 -- -- 94
2021-01-22 19:00:00 16 10 Norte 26 Norte 0 -- -- 93
2021-01-22 18:00:00 16.3 14 Norte 29 Norte 0 -- -- 91
2021-01-22 17:00:00 16.5 17 Norte 30 Norte 0 -- -- 90
2021-01-22 16:00:00 16.7 18 Norte 29 Norte 0 -- -- 90
2021-01-22 15:00:00 17.5 17 Norte 27 Noroeste 0 -- -- 90
2021-01-22 14:00:00 18 20 Noroeste 30 Noroeste 0 -- -- 89
2021-01-22 13:00:00 17.7 20 Noroeste 30 Norte 0 -- -- 93
2021-01-22 12:00:00 16.9 13 Norte 23 Noroeste 0 -- -- 96
2021-01-22 11:00:00 16.9 13 Noroeste 20 Noroeste 0 -- -- 97
2021-01-22 10:00:00 16.2 12 Noroeste 20 Noroeste 0 -- -- 96
2021-01-22 09:00:00 15.9 14 Norte 19 Norte 0 -- -- 97
2021-01-22 08:00:00 14.5 9 Noroeste 10 Oeste 0 -- -- 97
2021-01-22 07:00:00 15.2 6 Noroeste 10 Noroeste 0 -- -- 95
2021-01-22 06:00:00 15.8 5 Norte 15 Norte 0 -- -- 95
2021-01-22 05:00:00 15.8 9 Noroeste 13 Noroeste 0 -- -- 95
2021-01-22 04:00:00 15.9 7 Norte 10 Norte 0 -- -- 94
2021-01-22 03:00:00 16.3 5 Norte 11 Noroeste 0 -- -- 93
2021-01-22 02:00:00 16.3 8 Noroeste 11 Norte 0 -- -- 93
2021-01-22 01:00:00 16.4 8 Noroeste 18 Noroeste 0 -- -- 92
2021-01-22 00:00:00 15.9 7 Noroeste 23 Oeste 0 -- -- 92
2021-01-21 23:00:00 15.7 18 Oeste 26 Oeste 0 -- -- 91
2021-01-21 22:00:00 15.6 14 Noroeste 23 Oeste 0 -- -- 91
2021-01-21 21:00:00 15.7 14 Oeste 27 Oeste 0 -- -- 91
2021-01-21 20:00:00 15.8 18 Noroeste 26 Oeste 0 -- -- 91
2021-01-21 19:00:00 16 15 Noroeste 24 Oeste 0 -- -- 88
2021-01-21 18:00:00 16.9 18 Oeste 24 Oeste 0 -- -- 82
2021-01-21 17:00:00 18.4 12 Noroeste 26 Oeste 0 -- -- 77
2021-01-21 16:00:00 18.3 18 Oeste 27 Oeste 0 -- -- 81
2021-01-21 15:00:00 18.6 21 Oeste 32 Oeste 0 -- -- 81
2021-01-21 14:00:00 18.3 18 Oeste 29 Oeste 0 -- -- 84
2021-01-21 13:00:00 18.2 13 Oeste 21 Oeste 0 -- -- 82
2021-01-21 12:00:00 17.8 11 Noroeste 21 Noroeste 0 -- -- 84
2021-01-21 11:00:00 17 11 Noroeste 24 Noroeste 0 -- -- 87
2021-01-21 10:00:00 15.9 13 Noroeste 18 Noroeste 0 -- -- 90
2021-01-21 09:00:00 15.6 10 Noroeste 17 Oeste 0 -- -- 90
2021-01-21 08:00:00 15.3 8 Noroeste 15 Noroeste 0 -- -- 90
2021-01-21 07:00:00 15.2 7 Noroeste 12 Noroeste 0 -- -- 90
2021-01-21 06:00:00 15.1 6 Noroeste 17 Oeste 0 -- -- 90
2021-01-21 05:00:00 15.1 9 Noroeste 16 Oeste 0 -- -- 90
2021-01-21 04:00:00 14.9 4 Noroeste 6 Noroeste 0 -- -- 89
2021-01-21 03:00:00 14.8 0 Calma 4 Norte 0 -- -- 89
2021-01-21 02:00:00 14.7 3 Noroeste 15 Noroeste 0 -- -- 88
2021-01-21 01:00:00 14.7 13 Noroeste 22 Noroeste 0 -- -- 89
2021-01-21 00:00:00 13.9 10 Noroeste 19 Oeste 0 -- -- 88
2021-01-20 23:00:00 14.4 11 Noroeste 20 Oeste 0 -- -- 86
2021-01-20 22:00:00 14.9 14 Noroeste 26 Noroeste 0 -- -- 85
2021-01-20 21:00:00 14.4 12 Oeste 20 Noroeste 0 -- -- 85
2021-01-20 20:00:00 14.4 12 Oeste 20 Oeste 0 -- -- 82
2021-01-20 19:00:00 14.7 12 Noroeste 22 Oeste 0 -- -- 81
2021-01-20 18:00:00 15.4 12 Oeste 23 Oeste 0 -- -- 77
2021-01-20 17:00:00 16.7 11 Oeste 22 Oeste 0 -- -- 74
2021-01-20 16:00:00 16.8 17 Oeste 28 Oeste 0 -- -- 75
2021-01-20 15:00:00 16.9 13 Oeste 25 Oeste 0 -- -- 74
2021-01-20 14:00:00 17.7 9 Oeste 21 Este 0 -- -- 70
2021-01-20 13:00:00 18.2 16 Sudeste 25 Este 0 -- -- 74
2021-01-20 12:00:00 17.8 6 Oeste 25 Noroeste 0 -- -- 77
2021-01-20 11:00:00 16.7 11 Sudeste 15 Sudeste 0 -- -- 78
2021-01-20 10:00:00 15.5 6 Este 16 Oeste 0 -- -- 85
2021-01-20 09:00:00 13.2 7 Oeste 15 Oeste 0 -- -- 91
2021-01-20 08:00:00 11.1 5 Oeste 10 Oeste 0 -- -- 91
2021-01-20 07:00:00 11 0 Calma 8 Oeste 0 -- -- 89
2021-01-20 06:00:00 11.4 4 Oeste 8 Oeste 0 -- -- 89
2021-01-20 05:00:00 12 7 Oeste 21 Oeste 0 -- -- 91
2021-01-20 04:00:00 11.9 10 Oeste 23 Oeste 0 -- -- 92
2021-01-20 03:00:00 11.3 4 Oeste 12 Sudoeste 0 -- -- 91
2021-01-20 02:00:00 12.1 6 Sudoeste 10 Oeste 0 -- -- 94
2021-01-20 01:00:00 9.8 8 Oeste 11 Oeste 0 -- -- 93
2021-01-20 00:00:00 10 7 Oeste 11 Noroeste 0 -- -- 91
2021-01-19 23:00:00 10.1 6 Noroeste 9 Oeste 0 -- -- 90
2021-01-19 22:00:00 11.6 3 Oeste 9 Sur 0 -- -- 89
2021-01-19 21:00:00 11.6 4 Oeste 6 Noroeste 0 -- -- 87
2021-01-19 20:00:00 13.2 0 Calma 11 Sudeste 0 -- -- 84
2021-01-19 19:00:00 13.7 6 Sudeste 10 Sudeste 0 -- -- 82
2021-01-19 18:00:00 14.6 8 Sudeste 14 Sudeste 0 -- -- 79
2021-01-19 17:00:00 15.1 12 Sudeste 26 Sudeste 0 -- -- 77
2021-01-19 16:00:00 15.2 15 Este 22 Este 0 -- -- 76
2021-01-19 15:00:00 15.4 12 Este 21 Sudeste 0 -- -- 75
2021-01-19 14:00:00 15.9 13 Sudeste 24 Este 0 -- -- 73
2021-01-19 13:00:00 16.5 14 Este 26 Este 0 -- -- 71
2021-01-19 12:00:00 16.3 13 Sudeste 23 Sudeste 0 -- -- 72
2021-01-19 11:00:00 16.1 14 Este 21 Este 0 -- -- 75
2021-01-19 10:00:00 14.7 10 Este 16 Este 0 -- -- 83
2021-01-19 09:00:00 11.8 5 Nordeste 9 Nordeste 0 -- -- 92
2021-01-19 08:00:00 9.5 6 Noroeste 10 Noroeste 0 -- -- 92
2021-01-19 07:00:00 9.2 4 Noroeste 9 Noroeste 0 -- -- 89
2021-01-19 06:00:00 10.9 5 Noroeste 8 Norte 0 -- -- 88
2021-01-19 05:00:00 11.6 3 Norte 8 Nordeste 0 -- -- 89
2021-01-19 04:00:00 11.4 4 Nordeste 8 Este 0 -- -- 90
2021-01-19 03:00:00 11.8 4 Nordeste 8 Nordeste 0 -- -- 90
2021-01-19 02:00:00 11.9 2 Norte 11 Noroeste 0 -- -- 92
2021-01-19 01:00:00 10.9 8 Noroeste 12 Noroeste 0 -- -- 91
2021-01-19 00:00:00 11.3 4 Noroeste 9 Norte 0 -- -- 92
2021-01-18 23:00:00 10.6 4 Noroeste 8 Noroeste 0 -- -- 90
2021-01-18 22:00:00 11 3 Noroeste 7 Noroeste 0 -- -- 89
2021-01-18 21:00:00 11.1 4 Noroeste 6 Noroeste 0 -- -- 88
2021-01-18 20:00:00 12 3 Noroeste 7 Noroeste 0 -- -- 86
2021-01-18 19:00:00 13.7 2 Norte 6 Nordeste 0 -- -- 81
2021-01-18 18:00:00 14.8 4 Sudeste 14 Sudeste 0 -- -- 77
2021-01-18 17:00:00 16 10 Sudeste 19 Sudeste 0 -- -- 75
2021-01-18 16:00:00 16.7 11 Sudeste 21 Sudeste 0 -- -- 73
2021-01-18 15:00:00 16.7 15 Este 23 Este 0 -- -- 74
2021-01-18 14:00:00 17.3 13 Sudeste 24 Sudeste 0 -- -- 74
2021-01-18 13:00:00 17.3 16 Sudeste 23 Este 0 -- -- 73
2021-01-18 12:00:00 17 14 Sudeste 22 Este 0 -- -- 74
2021-01-18 11:00:00 16.5 10 Sudeste 19 Este 0 -- -- 80
2021-01-18 10:00:00 14.9 8 Este 15 Este 0 -- -- 92
2021-01-18 09:00:00 11.8 3 Noroeste 5 Norte 0 -- -- 95
2021-01-18 08:00:00 9.7 3 Noroeste 9 Noroeste 0 -- -- 95
2021-01-18 07:00:00 9.2 6 Noroeste 9 Noroeste 0 -- -- 95
2021-01-18 06:00:00 9.6 6 Noroeste 10 Noroeste 0 -- -- 94
2021-01-18 05:00:00 10 6 Noroeste 10 Oeste 0 -- -- 95
2021-01-18 04:00:00 9.8 4 Noroeste 6 Noroeste 0 -- -- 93
2021-01-18 03:00:00 10.1 3 Noroeste 9 Noroeste 0 -- -- 93
2021-01-18 02:00:00 9.9 4 Noroeste 6 Noroeste 0 -- -- 91
2021-01-18 01:00:00 12 3 Noroeste 10 Noroeste 0 -- -- 92
2021-01-18 00:00:00 11.1 8 Noroeste 15 Oeste 0 -- -- 90
2021-01-17 23:00:00 10.5 11 Noroeste 13 Noroeste 0 -- -- 92
2021-01-17 22:00:00 11.3 8 Noroeste 13 Noroeste 0 -- -- 90
2021-01-17 21:00:00 13 3 Noroeste 11 Nordeste 0 -- -- 88
2021-01-17 20:00:00 13.1 4 Noroeste 8 Norte 0 -- -- 87
2021-01-17 19:00:00 13.6 2 Noroeste 10 Este 0 -- -- 85
2021-01-17 18:00:00 14.7 6 Este 17 Este 0 -- -- 82
2021-01-17 17:00:00 15.8 9 Este 21 Este 0 -- -- 79
2021-01-17 16:00:00 16.5 14 Este 24 Sudeste 0 -- -- 75
2021-01-17 15:00:00 16.8 15 Sudeste 27 Este 0 -- -- 73
2021-01-17 14:00:00 16.4 17 Sudeste 32 Este 0 -- -- 75
2021-01-17 13:00:00 16.4 18 Este 31 Este 0 -- -- 76
2021-01-17 12:00:00 16.4 15 Este 27 Nordeste 0 -- -- 73
2021-01-17 11:00:00 16.6 18 Este 28 Este 0 -- -- 71
2021-01-17 10:00:00 15.4 16 Este 27 Este 0 -- -- 75
2021-01-17 09:00:00 14.2 9 Nordeste 24 Nordeste 0 -- -- 77
2021-01-17 08:00:00 14.1 14 Este 25 Nordeste 0 -- -- 78
2021-01-17 07:00:00 14.1 12 Este 22 Nordeste 0 -- -- 77
2021-01-17 06:00:00 14 14 Nordeste 23 Nordeste 0 -- -- 79
2021-01-17 05:00:00 13.8 11 Nordeste 26 Nordeste 0 -- -- 78
2021-01-17 04:00:00 13.8 16 Nordeste 27 Nordeste 0 -- -- 78
2021-01-17 03:00:00 13.8 10 Nordeste 20 Nordeste 0 -- -- 78
2021-01-17 02:00:00 13.7 13 Nordeste 21 Nordeste 0 -- -- 77
2021-01-17 01:00:00 13.4 9 Este 24 Norte 0 -- -- 78
2021-01-17 00:00:00 13.3 10 Nordeste 19 Nordeste 0 -- -- 79
2021-01-16 23:00:00 13.2 11 Nordeste 23 Nordeste 0 -- -- 78
2021-01-16 22:00:00 13.2 8 Nordeste 21 Nordeste 0 -- -- 77
2021-01-16 21:00:00 13.2 10 Norte 26 Nordeste 0 -- -- 75
2021-01-16 20:00:00 13.5 10 Norte 27 Nordeste 0 -- -- 74
2021-01-16 19:00:00 14.2 15 Nordeste 30 Nordeste 0 -- -- 73
2021-01-16 18:00:00 14.4 18 Nordeste 31 Norte 0 -- -- 72
2021-01-16 17:00:00 14.7 16 Nordeste 31 Nordeste 0 -- -- 71
2021-01-16 16:00:00 15.1 16 Nordeste 29 Nordeste 0 -- -- 71
2021-01-16 15:00:00 15.2 19 Norte 32 Nordeste 0 -- -- 68
2021-01-16 14:00:00 15.5 20 Nordeste 34 Nordeste 0 -- -- 67
2021-01-16 13:00:00 15.7 22 Nordeste 37 Norte 0 -- -- 68
2021-01-16 12:00:00 16.1 21 Nordeste 38 Nordeste 0 -- -- 66
2021-01-16 11:00:00 16.1 27 Nordeste 40 Nordeste 0 -- -- 66
2021-01-16 10:00:00 15.7 24 Nordeste 39 Nordeste 0 -- -- 70
2021-01-16 09:00:00 14.9 15 Nordeste 27 Norte 0 -- -- 71
2021-01-16 08:00:00 13.4 11 Nordeste 27 Nordeste 0 -- -- 73
2021-01-16 07:00:00 13.6 13 Norte 27 Norte 0 -- -- 74
2021-01-16 06:00:00 13.5 10 Nordeste 28 Nordeste 0 -- -- 73
2021-01-16 05:00:00 13.6 18 Nordeste 30 Nordeste 0 -- -- 73
2021-01-16 04:00:00 13.5 15 Nordeste 35 Norte 0 -- -- 76
2021-01-16 03:00:00 13.5 16 Nordeste 31 Nordeste 0 -- -- 74
2021-01-16 02:00:00 13.4 15 Nordeste 30 Norte 0 -- -- 73
2021-01-16 01:00:00 13.4 16 Nordeste 30 Nordeste 0 -- -- 72
2021-01-16 00:00:00 13.6 13 Nordeste 26 Nordeste 0 -- -- 73
2021-01-15 23:00:00 13.7 18 Nordeste 33 Nordeste 0 -- -- 72
2021-01-15 22:00:00 13.5 21 Nordeste 31 Nordeste 0 -- -- 71
2021-01-15 21:00:00 13.6 21 Nordeste 35 Nordeste 0 -- -- 70
2021-01-15 20:00:00 14.2 15 Norte 26 Norte 0 -- -- 74
2021-01-15 19:00:00 13.9 15 Nordeste 29 Norte 0 -- -- 68
2021-01-15 18:00:00 14.3 18 Norte 32 Nordeste 0 -- -- 68
2021-01-15 17:00:00 14.7 18 Nordeste 31 Norte 0 -- -- 71
2021-01-15 16:00:00 15 22 Norte 37 Norte 0 -- -- 67
2021-01-15 15:00:00 15.1 24 Nordeste 35 Nordeste 0 -- -- 63
2021-01-15 14:00:00 15 25 Nordeste 39 Norte 0 -- -- 64
2021-01-15 13:00:00 15.3 22 Nordeste 36 Norte 0 -- -- 64
2021-01-15 12:00:00 14.8 24 Nordeste 36 Nordeste 0 -- -- 69
2021-01-15 11:00:00 14.9 21 Nordeste 33 Nordeste 0 -- -- 64
2021-01-15 10:00:00 14.3 19 Nordeste 33 Nordeste 0 -- -- 68
2021-01-15 09:00:00 13.9 20 Nordeste 40 Nordeste 0 -- -- 66
2021-01-15 08:00:00 13.6 14 Norte 30 Nordeste 0 -- -- 72
2021-01-15 07:00:00 13.4 15 Nordeste 35 Nordeste 0 -- -- 68
2021-01-15 06:00:00 13.5 12 Nordeste 33 Nordeste 0 -- -- 72
2021-01-15 05:00:00 13.4 20 Nordeste 31 Nordeste 0 -- -- 67
2021-01-15 04:00:00 13.4 23 Nordeste 34 Nordeste 0 -- -- 66
2021-01-15 03:00:00 13.4 16 Nordeste 30 Nordeste 0 -- -- 65
2021-01-15 02:00:00 13.1 6 Norte 35 Nordeste 0 -- -- 66
2021-01-15 01:00:00 13.4 17 Nordeste 35 Nordeste 0 -- -- 67
2021-01-15 00:00:00 13.5 17 Nordeste 32 Nordeste 0 -- -- 68
2021-01-14 23:00:00 13.4 18 Nordeste 33 Nordeste 0 -- -- 64
2021-01-14 22:00:00 13.3 13 Nordeste 35 Norte 0 -- -- 64
2021-01-14 21:00:00 13.7 12 Norte 31 Norte 0 -- -- 68
2021-01-14 20:00:00 13.2 15 Norte 28 Norte 0 -- -- 69
2021-01-14 19:00:00 13.8 15 Norte 31 Norte 0 -- -- 67
2021-01-14 18:00:00 14.4 17 Nordeste 33 Nordeste 0 -- -- 70
2021-01-14 17:00:00 14.8 18 Nordeste 36 Nordeste 0 -- -- 71
2021-01-14 16:00:00 14.9 22 Nordeste 32 Nordeste 0 -- -- 70
2021-01-14 15:00:00 15.4 17 Nordeste 31 Norte 0 -- -- 63
2021-01-14 14:00:00 15.3 18 Nordeste 30 Norte 0 -- -- 63
2021-01-14 13:00:00 15.3 15 Nordeste 29 Nordeste 0 -- -- 66
2021-01-14 12:00:00 14.4 18 Nordeste 29 Nordeste 0 -- -- 70
2021-01-14 11:00:00 14.9 16 Nordeste 30 Nordeste 0 -- -- 68
2021-01-14 10:00:00 15.3 15 Nordeste 27 Nordeste 0 -- -- 72
2021-01-14 09:00:00 13.5 12 Nordeste 20 Nordeste 0 -- -- 81
2021-01-14 08:00:00 11.8 6 Nordeste 17 Norte 0 -- -- 84
2021-01-14 07:00:00 11.8 4 Nordeste 11 Nordeste 0 -- -- 82
2021-01-14 06:00:00 11.9 3 Nordeste 9 Nordeste 0 -- -- 82
2021-01-14 05:00:00 12.2 5 Nordeste 11 Nordeste 0 -- -- 82
2021-01-14 04:00:00 12.5 3 Este 17 Norte 0 -- -- 82
2021-01-14 03:00:00 12.7 5 Norte 14 Nordeste 0 -- -- 80
2021-01-14 02:00:00 12.9 6 Nordeste 14 Nordeste 0 -- -- 78
2021-01-14 01:00:00 12.9 3 Norte 10 Nordeste 0 -- -- 77
2021-01-14 00:00:00 13 4 Nordeste 10 Norte 0 -- -- 74
2021-01-13 23:00:00 12.9 2 Norte 9 Nordeste 0 -- -- 73
2021-01-13 22:00:00 13.1 2 Norte 9 Este 0 -- -- 70
2021-01-13 21:00:00 11.9 4 Noroeste 8 Noroeste 0 -- -- 73
2021-01-13 20:00:00 12.9 3 Noroeste 7 Nordeste 0 -- -- 67
2021-01-13 19:00:00 13.9 2 Norte 11 Nordeste 0 -- -- 65
2021-01-13 18:00:00 14.8 10 Nordeste 15 Este 0 -- -- 62
2021-01-13 17:00:00 16.6 10 Este 23 Este 0 -- -- 57
2021-01-13 16:00:00 17.4 13 Este 24 Este 0 -- -- 54
2021-01-13 15:00:00 17.4 14 Este 27 Este 0 -- -- 51
2021-01-13 14:00:00 17.8 16 Sudeste 24 Este 0 -- -- 55
2021-01-13 13:00:00 17.6 15 Sudeste 22 Este 0 -- -- 59
2021-01-13 12:00:00 17.2 12 Sudeste 25 Este 0 -- -- 60
2021-01-13 11:00:00 16.9 17 Este 28 Este 0 -- -- 67
2021-01-13 10:00:00 15.7 14 Este 23 Este 0 -- -- 75
2021-01-13 09:00:00 13.2 7 Nordeste 13 Norte 0 -- -- 86
2021-01-13 08:00:00 12.2 5 Nordeste 12 Nordeste 0 -- -- 84
2021-01-13 07:00:00 12 5 Nordeste 14 Este 0 -- -- 82
2021-01-13 06:00:00 12 5 Nordeste 15 Nordeste 0 -- -- 81
2021-01-13 05:00:00 11.9 4 Nordeste 14 Nordeste 0 -- -- 80
2021-01-13 04:00:00 12 4 Nordeste 19 Este 0 -- -- 80
2021-01-13 03:00:00 12.2 8 Nordeste 23 Este 0 -- -- 82
2021-01-13 02:00:00 12 5 Nordeste 15 Este 0 -- -- 83
2021-01-13 01:00:00 12.1 8 Nordeste 15 Nordeste 0 -- -- 82
2021-01-13 00:00:00 12.2 8 Nordeste 19 Nordeste 0 -- -- 81
2021-01-12 23:00:00 11.9 6 Nordeste 18 Nordeste 0 -- -- 79
2021-01-12 22:00:00 12.4 11 Nordeste 21 Nordeste 0 -- -- 78
2021-01-12 21:00:00 12.7 12 Nordeste 27 Nordeste 0 -- -- 76
2021-01-12 20:00:00 12.7 11 Nordeste 23 Nordeste 0 -- -- 76
2021-01-12 19:00:00 13.1 15 Nordeste 24 Nordeste 0 -- -- 76
2021-01-12 18:00:00 13.5 14 Nordeste 23 Nordeste 0 -- -- 74
2021-01-12 17:00:00 14.1 12 Nordeste 26 Nordeste 0 -- -- 75
2021-01-12 16:00:00 14.5 14 Nordeste 23 Nordeste 0 -- -- 73
2021-01-12 15:00:00 14.3 13 Nordeste 22 Nordeste 0 -- -- 72
2021-01-12 14:00:00 14.4 12 Nordeste 27 Nordeste 0 -- -- 72
2021-01-12 13:00:00 15.3 13 Este 22 Nordeste 0 -- -- 69
2021-01-12 12:00:00 14.6 12 Nordeste 25 Nordeste 0 -- -- 72
2021-01-12 11:00:00 14.5 18 Nordeste 25 Nordeste 0 -- -- 80
2021-01-12 10:00:00 13.6 14 Nordeste 24 Norte 0 -- -- 80
2021-01-12 09:00:00 11.3 8 Noroeste 15 Noroeste 0 -- -- 80
2021-01-12 08:00:00 10.1 9 Noroeste 13 Noroeste 0 -- -- 79
2021-01-12 07:00:00 12.3 9 Norte 15 Norte 0 -- -- 78
2021-01-12 06:00:00 12.5 6 Norte 16 Norte 0 -- -- 77
2021-01-12 05:00:00 12.6 9 Norte 17 Noroeste 0 -- -- 74
2021-01-12 04:00:00 12.9 5 Norte 14 Norte 0 -- -- 77
2021-01-12 03:00:00 12.8 6 Norte 15 Norte 0 -- -- 81
2021-01-12 02:00:00 12.4 5 Norte 12 Norte 0 -- -- 81
2021-01-12 01:00:00 12.7 3 Norte 15 Norte 0 -- -- 82
2021-01-12 00:00:00 12.9 8 Norte 15 Nordeste 0 -- -- 82
2021-01-11 23:00:00 12.9 8 Nordeste 16 Nordeste 0 -- -- 82
2021-01-11 22:00:00 12.3 5 Nordeste 14 Norte 0 -- -- 82
2021-01-11 21:00:00 12.3 2 Norte 23 Norte 0 -- -- 81
2021-01-11 20:00:00 12.9 16 Norte 29 Norte 0 -- -- 78
2021-01-11 19:00:00 13.1 13 Norte 29 Norte 0.2 -- -- 81
2021-01-11 18:00:00 13.3 13 Norte 38 Norte 0.4 -- -- 80
2021-01-11 17:00:00 14.3 17 Norte 31 Norte 0 -- -- 70
2021-01-11 16:00:00 15.2 17 Norte 43 Norte 0 -- -- 73
2021-01-11 15:00:00 15 22 Norte 43 Noroeste 0 -- -- 74
2021-01-11 14:00:00 14.7 17 Norte 32 Noroeste 0.2 -- -- 75
2021-01-11 13:00:00 14.7 12 Norte 35 Norte 0 -- -- 77
2021-01-11 12:00:00 14 21 Norte 38 Noroeste 0 -- -- 78
2021-01-11 11:00:00 14.3 22 Noroeste 34 Noroeste 0 -- -- 75
2021-01-11 10:00:00 14.3 19 Noroeste 28 Noroeste 0.4 -- -- 82
2021-01-11 09:00:00 12.7 26 Noroeste 39 Noroeste 0 -- -- 83
2021-01-11 08:00:00 12.2 21 Noroeste 33 Noroeste 0 -- -- 82
2021-01-11 07:00:00 12 13 Noroeste 36 Noroeste 0.8 -- -- 85
2021-01-11 06:00:00 12.2 23 Noroeste 36 Norte 0.6 -- -- 78
2021-01-11 05:00:00 12.7 23 Noroeste 39 Noroeste 0 -- -- 76
2021-01-11 04:00:00 13 28 Noroeste 42 Noroeste 0 -- -- 70
2021-01-11 03:00:00 12.7 25 Noroeste 38 Noroeste 0 -- -- 68
2021-01-11 02:00:00 12.7 28 Noroeste 40 Noroeste 0 -- -- 66
2021-01-11 01:00:00 12.6 22 Noroeste 36 Noroeste 0 -- -- 66
2021-01-11 00:00:00 12.4 22 Noroeste 45 Noroeste 0 -- -- 66
2021-01-10 23:00:00 12.6 25 Noroeste 46 Norte 0 -- -- 67
2021-01-10 22:00:00 12.7 31 Noroeste 48 Norte 0 -- -- 68
2021-01-10 21:00:00 12.7 28 Noroeste 53 Noroeste 0 -- -- 67
2021-01-10 20:00:00 13 36 Noroeste 55 Norte 0 -- -- 72
2021-01-10 19:00:00 12.5 32 Noroeste 53 Norte 0.6 -- -- 82
2021-01-10 18:00:00 11.9 34 Noroeste 64 Norte 0.4 -- -- 86
2021-01-10 17:00:00 12.7 36 Noroeste 60 Noroeste 0.8 -- -- 86
2021-01-10 16:00:00 13.3 40 Noroeste 62 Noroeste 3.2 -- -- 85
2021-01-10 15:00:00 14.5 30 Noroeste 64 Noroeste 0 -- -- 76
2021-01-10 14:00:00 14.7 35 Noroeste 53 Noroeste 0.2 -- -- 75
2021-01-10 13:00:00 14.1 31 Noroeste 58 Noroeste 1 -- -- 84
2021-01-10 12:00:00 15 35 Noroeste 62 Noroeste 0 -- -- 72
2021-01-10 11:00:00 14.5 39 Noroeste 59 Oeste 0 -- -- 75
2021-01-10 10:00:00 13.1 39 Noroeste 61 Noroeste 1 -- -- 85
2021-01-10 09:00:00 12.6 29 Noroeste 67 Oeste 0.2 -- -- 83
2021-01-10 08:00:00 13 32 Noroeste 62 Noroeste 0 -- -- 81
2021-01-10 07:00:00 12.8 33 Noroeste 58 Noroeste 1.2 -- -- 81
2021-01-10 06:00:00 12.8 34 Noroeste 59 Noroeste 0 -- -- 78
2021-01-10 05:00:00 11.6 41 Noroeste 67 Noroeste 1.2 -- -- 83
2021-01-10 04:00:00 12.5 30 Noroeste 71 Norte 1.4 -- -- 80
2021-01-10 03:00:00 13.1 35 Noroeste 57 Noroeste 0.2 -- -- 74
2021-01-10 02:00:00 12.9 30 Noroeste 52 Noroeste 0.6 -- -- 76
2021-01-10 01:00:00 12.6 27 Noroeste 54 Noroeste 0.6 -- -- 77
2021-01-10 00:00:00 12.7 23 Noroeste 43 Noroeste 0.2 -- -- 76
2021-01-09 23:00:00 12.7 28 Noroeste 52 Noroeste 0 -- -- 75
2021-01-09 22:00:00 13 35 Noroeste 50 Noroeste 0 -- -- 65
2021-01-09 21:00:00 12.9 22 Noroeste 47 Noroeste 0 -- -- 72
2021-01-09 20:00:00 13.1 28 Noroeste 45 Noroeste 0.2 -- -- 68
2021-01-09 19:00:00 12.8 27 Noroeste 50 Noroeste 0 -- -- 73
2021-01-09 18:00:00 12.6 37 Noroeste 54 Noroeste 0.2 -- -- 72
2021-01-09 17:00:00 13.2 31 Noroeste 49 Norte 0 -- -- 68
2021-01-09 16:00:00 13.2 33 Noroeste 58 Noroeste 0 -- -- 70
2021-01-09 15:00:00 14 30 Noroeste 57 Noroeste 0 -- -- 67
2021-01-09 14:00:00 14 30 Noroeste 51 Noroeste 0 -- -- 70
2021-01-09 13:00:00 13.3 33 Noroeste 50 Noroeste 0 -- -- 75
2021-01-09 12:00:00 11.4 27 Noroeste 46 Noroeste 3.4 -- -- 77
2021-01-09 11:00:00 13.8 24 Noroeste 43 Noroeste 0 -- -- 72
2021-01-09 10:00:00 13.8 28 Noroeste 47 Noroeste 0 -- -- 69
2021-01-09 09:00:00 13.1 30 Noroeste 50 Noroeste 0 -- -- 69
2021-01-09 08:00:00 12.9 30 Noroeste 54 Oeste 0 -- -- 69
2021-01-09 07:00:00 12.9 23 Noroeste 42 Noroeste 0 -- -- 70
2021-01-09 06:00:00 12.3 18 Noroeste 31 Noroeste 0 -- -- 75
2021-01-09 05:00:00 12.3 18 Noroeste 40 Noroeste 0 -- -- 75
2021-01-09 04:00:00 13 21 Noroeste 33 Noroeste 0 -- -- 72
2021-01-09 03:00:00 12.9 23 Noroeste 33 Norte 0.4 -- -- 75
2021-01-09 02:00:00 13.4 21 Noroeste 40 Noroeste 0 -- -- 68
2021-01-09 01:00:00 13.6 23 Noroeste 36 Noroeste 0 -- -- 68
2021-01-09 00:00:00 13 16 Noroeste 29 Noroeste 0 -- -- 74
2021-01-08 23:00:00 12.4 20 Noroeste 46 Norte 0 -- -- 80
2021-01-08 22:00:00 13.4 18 Noroeste 38 Noroeste 0 -- -- 75
2021-01-08 21:00:00 13.7 24 Noroeste 37 Noroeste 0 -- -- 73
2021-01-08 20:00:00 13.8 24 Noroeste 41 Noroeste 0 -- -- 76
2021-01-08 19:00:00 13.9 27 Noroeste 44 Noroeste 0 -- -- 78
2021-01-08 18:00:00 14 30 Noroeste 52 Noroeste 0 -- -- 79
2021-01-08 17:00:00 14.2 30 Noroeste 54 Noroeste 0 -- -- 81
2021-01-08 16:00:00 14.2 35 Noroeste 52 Noroeste 0.2 -- -- 86
2021-01-08 15:00:00 14.2 28 Noroeste 55 Noroeste 2 -- -- 91
2021-01-08 14:00:00 15.2 34 Noroeste 54 Noroeste 0.6 -- -- 88
2021-01-08 13:00:00 14.9 32 Noroeste 57 Noroeste 2.4 -- -- 84
2021-01-08 12:00:00 16 27 Noroeste 62 Noroeste 0 -- -- 84
2021-01-08 11:00:00 16.3 32 Noroeste 58 Sudoeste 0 -- -- 83
2021-01-08 10:00:00 16.4 26 Oeste 60 Oeste 0 -- -- 84
2021-01-08 09:00:00 16.2 31 Oeste 64 Oeste 0 -- -- 86
2021-01-08 08:00:00 16.2 28 Oeste 84 Sudoeste 0 -- -- 87
2021-01-08 07:00:00 16.7 37 Sudoeste 66 Sudoeste 0 -- -- 88
2021-01-08 06:00:00 16.8 34 Oeste 72 Sudoeste 1.2 -- -- 88
2021-01-08 05:00:00 17.8 31 Sudoeste 57 Sudoeste 0 -- -- 86
2021-01-08 04:00:00 18 32 Sudoeste 58 Sudoeste 0 -- -- 85
2021-01-08 03:00:00 18.2 41 Sudoeste 63 Sudoeste 0 -- -- 84
2021-01-08 02:00:00 18.5 31 Sudoeste 57 Sudoeste 0 -- -- 83
2021-01-08 01:00:00 18.6 35 Sudoeste 58 Sudoeste 0 -- -- 82
2021-01-08 00:00:00 18.5 28 Sudoeste 57 Sur 0 -- -- 86
2021-01-07 23:00:00 18.9 36 Sudoeste 60 Sudoeste 0 -- -- 84
2021-01-07 22:00:00 18.8 31 Sudoeste 54 Sudoeste 0 -- -- 87
2021-01-07 21:00:00 18.7 32 Sudoeste 54 Sudoeste 0 -- -- 86
2021-01-07 20:00:00 18.8 34 Sudoeste 49 Sudoeste 0 -- -- 85
2021-01-07 19:00:00 18.7 32 Sudoeste 49 Sudoeste 0 -- -- 87
2021-01-07 18:00:00 18.7 26 Sudoeste 52 Sudoeste 0 -- -- 85
2021-01-07 17:00:00 19.3 37 Sudoeste 60 Sudoeste 0 -- -- 83
2021-01-07 16:00:00 19.3 34 Sudoeste 60 Sudoeste 0 -- -- 82
2021-01-07 15:00:00 18.3 31 Sudoeste 63 Sudoeste 0 -- -- 85
2021-01-07 14:00:00 18.2 36 Sudoeste 56 Sudoeste 1.6 -- -- 76
2021-01-07 13:00:00 18.3 39 Sudoeste 68 Sudoeste 0.4 -- -- 86
2021-01-07 12:00:00 18.9 44 Sudoeste 66 Sudoeste 0 -- -- 86
2021-01-07 11:00:00 19.8 43 Sudoeste 66 Sudoeste 0 -- -- 78
2021-01-07 10:00:00 19.2 28 Sudoeste 51 Sudoeste 0 -- -- 83
2021-01-07 09:00:00 18.7 24 Sudoeste 55 Sudoeste 0 -- -- 84
2021-01-07 08:00:00 18.4 31 Sudoeste 64 Sudoeste 0 -- -- 87
2021-01-07 07:00:00 18.2 39 Sudoeste 55 Sudoeste 0 -- -- 87
2021-01-07 06:00:00 18.3 38 Sudoeste 51 Sudoeste 0.2 -- -- 87
2021-01-07 05:00:00 18.2 27 Sudoeste 42 Sudoeste 0 -- -- 86
2021-01-07 04:00:00 18.2 21 Sur 40 Sudoeste 0 -- -- 84
2021-01-07 03:00:00 18.2 27 Sudoeste 45 Oeste 0 -- -- 85
2021-01-07 02:00:00 18.6 26 Sudoeste 41 Sudoeste 0 -- -- 82
2021-01-07 01:00:00 18 21 Sudoeste 36 Sudoeste 0 -- -- 87
2021-01-07 00:00:00 18.7 19 Sudoeste 35 Sudoeste 0 -- -- 79
2021-01-06 23:00:00 18.7 22 Sudoeste 41 Sudoeste 0 -- -- 81
2021-01-06 22:00:00 18.4 26 Sudoeste 42 Sudoeste 0 -- -- 85
2021-01-06 21:00:00 18.2 23 Oeste 41 Sudoeste 0 -- -- 83
2021-01-06 20:00:00 18.2 33 Oeste 57 Sudoeste 0 -- -- 89
2021-01-06 19:00:00 18.2 32 Oeste 54 Sudoeste 0 -- -- 89
2021-01-06 18:00:00 19 32 Sudoeste 53 Oeste 1.6 -- -- 91
2021-01-06 17:00:00 19 32 Sudoeste 64 Sudoeste 0 -- -- 90
2021-01-06 16:00:00 19 28 Sudoeste 70 Sudoeste 1.4 -- -- 89
2021-01-06 15:00:00 20.2 29 Sudoeste 51 Sudoeste 0 -- -- 81
2021-01-06 14:00:00 20.9 36 Sudoeste 68 Sudoeste 0 -- -- 78
2021-01-06 13:00:00 21 40 Sudoeste 65 Sudoeste 0 -- -- 76
2021-01-06 12:00:00 21.2 48 Sudoeste 69 Sudoeste 0 -- -- 76
2021-01-06 11:00:00 20.5 43 Sudoeste 64 Sudoeste 0 -- -- 78
2021-01-06 10:00:00 19.3 31 Sudoeste 57 Sudoeste 0 -- -- 82
2021-01-06 09:00:00 18.6 40 Sudoeste 60 Sudoeste 0 -- -- 83
2021-01-06 08:00:00 17.6 35 Sudoeste 54 Sur 0 -- -- 84
2021-01-06 07:00:00 17.4 34 Sudoeste 55 Sudoeste 0 -- -- 86
2021-01-06 06:00:00 17.3 24 Sudoeste 51 Sudoeste 0 -- -- 85
2021-01-06 05:00:00 17.4 33 Sudoeste 49 Sudoeste 0.2 -- -- 88
2021-01-06 04:00:00 17.1 22 Sudoeste 38 Sur 0 -- -- 89
2021-01-06 03:00:00 17.3 16 Sur 32 Sur 0.4 -- -- 89
2021-01-06 02:00:00 17.2 24 Sur 33 Sur 0 -- -- 86
2021-01-06 01:00:00 17.2 17 Sur 27 Sudoeste 0 -- -- 84
2021-01-06 00:00:00 17.5 13 Sur 25 Sur 0 -- -- 80
2021-01-05 23:00:00 16.8 11 Sudoeste 25 Oeste 0 -- -- 82
2021-01-05 22:00:00 17.2 14 Oeste 29 Oeste 0 -- -- 84
2021-01-05 21:00:00 17.2 15 Oeste 28 Sudoeste 0 -- -- 86
2021-01-05 20:00:00 17.4 17 Oeste 35 Oeste 0 -- -- 87
2021-01-05 19:00:00 17.6 16 Sudoeste 38 Oeste 0 -- -- 84
2021-01-05 18:00:00 17.8 18 Oeste 40 Sudoeste 0 -- -- 87
2021-01-05 17:00:00 18 18 Oeste 39 Oeste 0 -- -- 87
2021-01-05 16:00:00 18 19 Oeste 44 Oeste 0 -- -- 89
2021-01-05 15:00:00 18.5 28 Oeste 48 Oeste 0 -- -- 86
2021-01-05 14:00:00 18.7 26 Oeste 50 Oeste 0 -- -- 87
2021-01-05 13:00:00 18.5 29 Oeste 55 Oeste 0 -- -- 89
2021-01-05 12:00:00 17.8 35 Oeste 51 Oeste 0 -- -- 92
2021-01-05 11:00:00 17.8 36 Oeste 51 Oeste 0 -- -- 91
2021-01-05 10:00:00 18 27 Oeste 45 Oeste 0 -- -- 92
2021-01-05 09:00:00 17.5 25 Oeste 46 Oeste 0.6 -- -- 93
2021-01-05 08:00:00 17.1 25 Noroeste 53 Oeste 0 -- -- 92
2021-01-05 07:00:00 17.3 32 Oeste 63 Sudoeste 1.8 -- -- 90
2021-01-05 06:00:00 17.6 31 Oeste 56 Oeste 0 -- -- 87
2021-01-05 05:00:00 17.6 36 Oeste 49 Oeste 0 -- -- 85
2021-01-05 04:00:00 17.5 30 Oeste 47 Sudoeste 0 -- -- 84
2021-01-05 03:00:00 17.5 27 Sudoeste 46 Oeste 0 -- -- 81
2021-01-05 02:00:00 17.4 30 Oeste 51 Oeste 0 -- -- 76
2021-01-05 01:00:00 18.4 23 Oeste 41 Oeste 0 -- -- 68
2021-01-05 00:00:00 18.4 23 Sudoeste 40 Sudoeste 0 -- -- 67
2021-01-04 23:00:00 18.4 24 Oeste 37 Oeste 0 -- -- 69
2021-01-04 22:00:00 17 9 Oeste 28 Sudoeste 0 -- -- 72
2021-01-04 21:00:00 15.8 15 Sudoeste 26 Sudoeste 0 -- -- 79
2021-01-04 20:00:00 14.8 14 Sur 23 Sur 0 -- -- 85
2021-01-04 19:00:00 15.1 14 Sudeste 27 Sur 0 -- -- 82
2021-01-04 18:00:00 15.1 15 Sur 26 Sur 0 -- -- 77
2021-01-04 17:00:00 15.3 16 Sur 30 Sur 0 -- -- 75
2021-01-04 16:00:00 15.5 19 Sur 30 Sur 0 -- -- 72
2021-01-04 15:00:00 15.8 20 Sudeste 31 Sudeste 0 -- -- 68
2021-01-04 14:00:00 16 17 Sudeste 31 Sudeste 0 -- -- 66
2021-01-04 13:00:00 16 16 Sudeste 28 Este 0 -- -- 66
2021-01-04 12:00:00 15.6 16 Sudeste 23 Sudeste 0 -- -- 67
2021-01-04 11:00:00 15.3 13 Sudeste 20 Sudeste 0 -- -- 69
2021-01-04 10:00:00 13.8 6 Sudeste 9 Sudeste 0 -- -- 78
2021-01-04 09:00:00 12.2 4 Este 6 Este 0 -- -- 83
2021-01-04 08:00:00 11.2 0 Calma 8 Noroeste 0 -- -- 85
2021-01-04 07:00:00 10.2 4 Noroeste 9 Noroeste 0 -- -- 87
2021-01-04 06:00:00 10.3 5 Oeste 9 Noroeste 0 -- -- 86
2021-01-04 05:00:00 10.5 4 Oeste 8 Noroeste 0 -- -- 85
2021-01-04 04:00:00 11.3 4 Norte 6 Nordeste 0 -- -- 84
2021-01-04 03:00:00 10.5 3 Noroeste 6 Noroeste 0 -- -- 85
2021-01-04 02:00:00 11.9 4 Norte 9 Nordeste 0 -- -- 80
2021-01-04 01:00:00 11.8 2 Norte 7 Norte 0 -- -- 80
2021-01-04 00:00:00 12.7 3 Norte 9 Nordeste 0 -- -- 77
2021-01-03 23:00:00 13 4 Nordeste 10 Nordeste 0 -- -- 77
2021-01-03 22:00:00 13.3 5 Nordeste 12 Nordeste 0 -- -- 76
2021-01-03 21:00:00 13.8 7 Nordeste 15 Este 0 -- -- 75
2021-01-03 20:00:00 13.6 9 Este 14 Este 0 -- -- 74
2021-01-03 19:00:00 13.8 7 Nordeste 18 Nordeste 0 -- -- 73
2021-01-03 18:00:00 14.2 10 Nordeste 21 Nordeste 0 -- -- 73
2021-01-03 17:00:00 14.6 12 Nordeste 24 Este 0 -- -- 72
2021-01-03 16:00:00 14.6 12 Nordeste 20 Nordeste 0 -- -- 70
2021-01-03 15:00:00 14.8 15 Nordeste 23 Nordeste 0 -- -- 70
2021-01-03 14:00:00 15.1 13 Nordeste 24 Nordeste 0 -- -- 70
2021-01-03 13:00:00 15.3 12 Nordeste 24 Nordeste 0 -- -- 67
2021-01-03 12:00:00 15.2 14 Norte 22 Nordeste 0 -- -- 65
2021-01-03 11:00:00 15.3 12 Nordeste 21 Nordeste 0 -- -- 69
2021-01-03 10:00:00 14.9 13 Nordeste 19 Nordeste 0 -- -- 68
2021-01-03 09:00:00 14.2 9 Nordeste 17 Nordeste 0 -- -- 68
2021-01-03 08:00:00 13.7 7 Norte 18 Nordeste 0 -- -- 71
2021-01-03 07:00:00 13.9 9 Nordeste 25 Nordeste 0 -- -- 71
2021-01-03 06:00:00 13.8 8 Nordeste 19 Nordeste 0 -- -- 72
2021-01-03 05:00:00 13.8 9 Nordeste 20 Nordeste 0 -- -- 75
2021-01-03 04:00:00 13.9 9 Nordeste 15 Nordeste 0 -- -- 77
2021-01-03 03:00:00 13.5 3 Norte 24 Nordeste 0 -- -- 73
2021-01-03 02:00:00 14.1 14 Nordeste 25 Nordeste 0 -- -- 76
2021-01-03 01:00:00 13.8 8 Nordeste 22 Nordeste 0 -- -- 75
2021-01-03 00:00:00 14.3 15 Nordeste 23 Nordeste 0 -- -- 74
2021-01-02 23:00:00 14.2 8 Norte 20 Nordeste 0 -- -- 71
2021-01-02 22:00:00 14.1 9 Nordeste 18 Nordeste 0 -- -- 73
2021-01-02 21:00:00 14.4 8 Nordeste 22 Nordeste 0 -- -- 69
2021-01-02 20:00:00 14.6 9 Nordeste 23 Norte 0 -- -- 68
2021-01-02 19:00:00 14.7 14 Norte 29 Norte 0 -- -- 61
2021-01-02 18:00:00 15 15 Norte 27 Norte 0 -- -- 61
2021-01-02 17:00:00 15.3 14 Norte 33 Norte 0 -- -- 64
2021-01-02 16:00:00 15.9 14 Norte 28 Norte 0 -- -- 62
2021-01-02 15:00:00 16 19 Nordeste 32 Nordeste 0 -- -- 61
2021-01-02 14:00:00 16.5 17 Norte 32 Nordeste 0 -- -- 60
2021-01-02 13:00:00 16.3 15 Nordeste 28 Norte 0 -- -- 62